sensor_id;sensor_type;location;lat;lon;timestamp;pressure;altitude;pressure_sealevel;temperature;humidity
66176;BME280;52977;44.816;20.538;2022-10-14T00:01:09;100052.53;;;15.27;98.18
66176;BME280;52977;44.816;20.538;2022-10-14T00:03:37;100082.31;;;15.37;98.35
66176;BME280;52977;44.816;20.538;2022-10-14T00:06:05;100077.50;;;15.47;98.37
66176;BME280;52977;44.816;20.538;2022-10-14T00:08:31;100091.81;;;15.52;98.54
66176;BME280;52977;44.816;20.538;2022-10-14T00:11:02;100085.41;;;15.48;98.06
66176;BME280;52977;44.816;20.538;2022-10-14T00:13:28;100085.41;;;15.48;98.02
66176;BME280;52977;44.816;20.538;2022-10-14T00:15:54;100075.66;;;15.38;98.18
66176;BME280;52977;44.816;20.538;2022-10-14T00:18:20;100076.94;;;15.41;98.30
66176;BME280;52977;44.816;20.538;2022-10-14T00:21:00;100071.66;;;15.36;97.79
66176;BME280;52977;44.816;20.538;2022-10-14T00:23:27;100076.72;;;15.34;97.29
66176;BME280;52977;44.816;20.538;2022-10-14T00:25:53;100063.97;;;15.29;98.53
66176;BME280;52977;44.816;20.538;2022-10-14T00:28:22;99999.63;;;14.93;98.08
66176;BME280;52977;44.816;20.538;2022-10-14T00:30:55;100052.53;;;15.27;97.67
66176;BME280;52977;44.816;20.538;2022-10-14T00:33:21;100068.47;;;15.34;97.58
66176;BME280;52977;44.816;20.538;2022-10-14T00:35:57;100055.97;;;15.36;97.50
66176;BME280;52977;44.816;20.538;2022-10-14T00:38:29;100062.59;;;15.35;97.28
66176;BME280;52977;44.816;20.538;2022-10-14T00:40:55;100025.63;;;15.08;97.64
66176;BME280;52977;44.816;20.538;2022-10-14T00:43:23;100041.88;;;15.26;97.81
66176;BME280;52977;44.816;20.538;2022-10-14T00:45:49;100049.09;;;15.30;97.07
66176;BME280;52977;44.816;20.538;2022-10-14T00:48:16;99971.59;;;14.75;97.02
66176;BME280;52977;44.816;20.538;2022-10-14T00:50:46;100013.72;;;14.79;99.48
66176;BME280;52977;44.816;20.538;2022-10-14T00:53:13;100058.03;;;14.90;100.00
66176;BME280;52977;44.816;20.538;2022-10-14T00:55:41;100026.78;;;14.82;100.00
66176;BME280;52977;44.816;20.538;2022-10-14T00:58:10;99983.22;;;14.60;99.51
66176;BME280;52977;44.816;20.538;2022-10-14T01:00:37;99987.03;;;14.67;98.61
66176;BME280;52977;44.816;20.538;2022-10-14T01:03:08;100007.31;;;14.88;98.15
66176;BME280;52977;44.816;20.538;2022-10-14T01:05:41;100041.19;;;15.16;98.01
66176;BME280;52977;44.816;20.538;2022-10-14T01:08:22;100034.91;;;15.16;97.85
66176;BME280;52977;44.816;20.538;2022-10-14T01:11:02;100045.69;;;15.09;97.97
66176;BME280;52977;44.816;20.538;2022-10-14T01:13:40;100037.09;;;15.10;97.19
66176;BME280;52977;44.816;20.538;2022-10-14T01:16:26;100043.16;;;15.03;97.30
66176;BME280;52977;44.816;20.538;2022-10-14T01:19:21;100032.72;;;15.09;97.80
66176;BME280;52977;44.816;20.538;2022-10-14T01:22:04;99986.81;;;14.73;97.49
66176;BME280;52977;44.816;20.538;2022-10-14T01:32:29;100027.22;;;15.09;97.18
66176;BME280;52977;44.816;20.538;2022-10-14T01:37:32;100027.34;;;15.00;97.77
66176;BME280;52977;44.816;20.538;2022-10-14T01:40:07;99972.50;;;14.67;97.62
66176;BME280;52977;44.816;20.538;2022-10-14T01:42:38;99977.75;;;14.84;97.02
66176;BME280;52977;44.816;20.538;2022-10-14T01:45:16;99981.41;;;14.76;96.38
66176;BME280;52977;44.816;20.538;2022-10-14T01:47:46;99988.06;;;14.88;96.76
66176;BME280;52977;44.816;20.538;2022-10-14T01:50:15;100041.78;;;14.97;96.65
66176;BME280;52977;44.816;20.538;2022-10-14T01:53:09;100012.34;;;14.98;96.73
66176;BME280;52977;44.816;20.538;2022-10-14T01:55:42;99975.47;;;14.74;96.28
66176;BME280;52977;44.816;20.538;2022-10-14T01:58:13;100013.59;;;15.00;95.68
66176;BME280;52977;44.816;20.538;2022-10-14T02:00:40;99972.72;;;14.74;96.10
66176;BME280;52977;44.816;20.538;2022-10-14T02:03:06;100011.19;;;14.99;96.19
66176;BME280;52977;44.816;20.538;2022-10-14T04:42:57;99969.28;;;14.65;92.42
66176;BME280;52977;44.816;20.538;2022-10-14T04:45:31;99970.44;;;14.64;93.22
66176;BME280;52977;44.816;20.538;2022-10-14T04:48:00;99976.38;;;14.66;93.42
66176;BME280;52977;44.816;20.538;2022-10-14T04:50:27;99952.44;;;14.54;92.44
66176;BME280;52977;44.816;20.538;2022-10-14T04:53:11;99880.88;;;14.01;93.20
66176;BME280;52977;44.816;20.538;2022-10-14T04:55:43;99978.69;;;14.64;93.39
66176;BME280;52977;44.816;20.538;2022-10-14T04:58:10;99974.34;;;14.63;93.71
66176;BME280;52977;44.816;20.538;2022-10-14T05:00:40;99934.09;;;14.33;93.69
66176;BME280;52977;44.816;20.538;2022-10-14T05:03:25;99973.59;;;14.53;93.28
66176;BME280;52977;44.816;20.538;2022-10-14T05:05:50;99933.97;;;14.17;93.05
66176;BME280;52977;44.816;20.538;2022-10-14T05:08:17;99955.25;;;14.33;93.95
66176;BME280;52977;44.816;20.538;2022-10-14T05:10:47;99928.03;;;14.28;93.29
66176;BME280;52977;44.816;20.538;2022-10-14T05:13:19;99970.06;;;14.53;93.45
66176;BME280;52977;44.816;20.538;2022-10-14T05:15:55;99928.47;;;14.17;92.75
66176;BME280;52977;44.816;20.538;2022-10-14T05:18:21;99957.34;;;14.36;93.43
66176;BME280;52977;44.816;20.538;2022-10-14T05:20:58;99974.28;;;14.50;93.83
66176;BME280;52977;44.816;20.538;2022-10-14T05:23:30;99929.19;;;14.27;93.57
66176;BME280;52977;44.816;20.538;2022-10-14T05:25:57;99966.94;;;14.42;93.34
66176;BME280;52977;44.816;20.538;2022-10-14T05:28:24;99909.81;;;13.98;93.37
66176;BME280;52977;44.816;20.538;2022-10-14T05:30:49;99923.44;;;14.19;93.25
66176;BME280;52977;44.816;20.538;2022-10-14T05:33:17;99971.97;;;14.52;93.13
66176;BME280;52977;44.816;20.538;2022-10-14T05:35:43;99962.25;;;14.43;93.55
66176;BME280;52977;44.816;20.538;2022-10-14T05:38:08;99940.97;;;14.40;92.79
66176;BME280;52977;44.816;20.538;2022-10-14T05:40:38;99960.56;;;14.50;92.48
66176;BME280;52977;44.816;20.538;2022-10-14T05:43:04;99968.91;;;14.54;92.46
66176;BME280;52977;44.816;20.538;2022-10-14T05:45:34;99906.97;;;14.19;92.23
66176;BME280;52977;44.816;20.538;2022-10-14T05:48:01;99896.22;;;14.14;91.99
66176;BME280;52977;44.816;20.538;2022-10-14T05:50:27;99935.13;;;14.41;91.87
66176;BME280;52977;44.816;20.538;2022-10-14T05:52:53;99975.47;;;14.74;91.13
66176;BME280;52977;44.816;20.538;2022-10-14T05:55:24;99903.09;;;14.33;90.69
66176;BME280;52977;44.816;20.538;2022-10-14T05:57:55;99963.78;;;14.65;90.42
66176;BME280;52977;44.816;20.538;2022-10-14T06:00:24;99928.41;;;14.39;90.64
66176;BME280;52977;44.816;20.538;2022-10-14T06:02:53;99963.78;;;14.65;91.18
66176;BME280;52977;44.816;20.538;2022-10-14T06:05:18;99985.31;;;14.63;91.23
66176;BME280;52977;44.816;20.538;2022-10-14T06:07:44;99970.50;;;14.55;91.96
66176;BME280;52977;44.816;20.538;2022-10-14T06:10:09;99989.59;;;14.39;93.13
66176;BME280;52977;44.816;20.538;2022-10-14T06:12:36;99966.69;;;14.23;93.81
66176;BME280;52977;44.816;20.538;2022-10-14T06:15:02;99973.56;;;14.16;95.09
66176;BME280;52977;44.816;20.538;2022-10-14T06:17:28;99959.56;;;14.09;94.79
66176;BME280;52977;44.816;20.538;2022-10-14T06:19:54;100010.84;;;14.30;96.12
66176;BME280;52977;44.816;20.538;2022-10-14T06:22:19;99969.84;;;14.00;96.94
66176;BME280;52977;44.816;20.538;2022-10-14T06:24:46;100004.97;;;14.07;98.26
66176;BME280;52977;44.816;20.538;2022-10-14T06:27:11;100013.16;;;14.28;97.63
66176;BME280;52977;44.816;20.538;2022-10-14T06:29:37;100017.06;;;14.39;96.13
66176;BME280;52977;44.816;20.538;2022-10-14T06:32:04;100002.41;;;14.35;95.33
66176;BME280;52977;44.816;20.538;2022-10-14T06:34:30;99987.75;;;14.31;95.12
66176;BME280;52977;44.816;20.538;2022-10-14T06:36:55;100000.34;;;14.32;96.22
66176;BME280;52977;44.816;20.538;2022-10-14T06:39:21;100016.63;;;14.49;96.49
66176;BME280;52977;44.816;20.538;2022-10-14T06:41:47;100002.91;;;14.62;95.53
66176;BME280;52977;44.816;20.538;2022-10-14T06:44:20;100007.94;;;14.60;95.36
66176;BME280;52977;44.816;20.538;2022-10-14T06:46:46;99981.72;;;14.38;94.62
66176;BME280;52977;44.816;20.538;2022-10-14T06:49:12;99985.63;;;14.49;93.92
66176;BME280;52977;44.816;20.538;2022-10-14T06:51:37;99987.91;;;14.34;94.80
66176;BME280;52977;44.816;20.538;2022-10-14T06:54:04;99997.50;;;14.41;96.14
66176;BME280;52977;44.816;20.538;2022-10-14T06:56:30;100008.03;;;14.51;94.54
66176;BME280;52977;44.816;20.538;2022-10-14T06:58:56;100007.47;;;14.58;94.26
66176;BME280;52977;44.816;20.538;2022-10-14T07:01:22;100004.94;;;14.52;95.45
66176;BME280;52977;44.816;20.538;2022-10-14T07:03:47;99960.97;;;14.15;94.77
66176;BME280;52977;44.816;20.538;2022-10-14T07:06:13;99993.97;;;14.52;94.73
66176;BME280;52977;44.816;20.538;2022-10-14T07:08:39;100002.13;;;14.61;93.72
66176;BME280;52977;44.816;20.538;2022-10-14T07:11:05;99995.56;;;14.53;93.85
66176;BME280;52977;44.816;20.538;2022-10-14T07:13:31;99993.97;;;14.52;92.87
66176;BME280;52977;44.816;20.538;2022-10-14T07:15:59;99998.66;;;14.52;94.00
66176;BME280;52977;44.816;20.538;2022-10-14T07:18:25;99923.94;;;13.88;94.48
66176;BME280;52977;44.816;20.538;2022-10-14T07:20:50;99933.03;;;14.13;94.74
66176;BME280;52977;44.816;20.538;2022-10-14T07:23:16;99978.28;;;14.41;95.16
66176;BME280;52977;44.816;20.538;2022-10-14T07:25:42;100006.16;;;14.64;93.91
66176;BME280;52977;44.816;20.538;2022-10-14T07:28:07;99938.78;;;14.33;92.68
66176;BME280;52977;44.816;20.538;2022-10-14T07:30:33;100005.69;;;14.86;92.63
66176;BME280;52977;44.816;20.538;2022-10-14T07:32:59;99992.75;;;14.75;92.95
66176;BME280;52977;44.816;20.538;2022-10-14T07:35:25;99999.63;;;14.81;92.24
66176;BME280;52977;44.816;20.538;2022-10-14T07:37:51;100007.97;;;14.84;92.35
66176;BME280;52977;44.816;20.538;2022-10-14T07:40:18;99983.16;;;14.81;91.69
66176;BME280;52977;44.816;20.538;2022-10-14T07:42:44;99992.53;;;14.67;92.47
66176;BME280;52977;44.816;20.538;2022-10-14T07:45:10;100021.97;;;14.92;93.81
66176;BME280;52977;44.816;20.538;2022-10-14T07:47:42;100022.31;;;14.78;94.27
66176;BME280;52977;44.816;20.538;2022-10-14T07:50:09;100005.97;;;14.48;95.47
66176;BME280;52977;44.816;20.538;2022-10-14T07:52:34;100002.91;;;14.62;95.03
66176;BME280;52977;44.816;20.538;2022-10-14T07:55:00;100015.28;;;14.56;96.04
66176;BME280;52977;44.816;20.538;2022-10-14T07:57:26;100010.28;;;14.70;95.16
66176;BME280;52977;44.816;20.538;2022-10-14T07:59:52;100009.16;;;14.83;94.45
66176;BME280;52977;44.816;20.538;2022-10-14T08:02:18;100003.31;;;14.85;93.91
66176;BME280;52977;44.816;20.538;2022-10-14T08:04:44;100008.66;;;14.81;93.60
66176;BME280;52977;44.816;20.538;2022-10-14T08:07:10;99977.88;;;14.76;93.03
66176;BME280;52977;44.816;20.538;2022-10-14T08:09:39;100011.88;;;14.96;93.13
66176;BME280;52977;44.816;20.538;2022-10-14T08:12:05;99956.72;;;14.64;93.05
66176;BME280;52977;44.816;20.538;2022-10-14T08:14:30;99998.59;;;14.98;92.12
66176;BME280;52977;44.816;20.538;2022-10-14T08:16:56;100008.81;;;14.97;92.19
66176;BME280;52977;44.816;20.538;2022-10-14T08:19:22;99986.09;;;14.63;92.48
66176;BME280;52977;44.816;20.538;2022-10-14T08:21:48;100012.00;;;14.87;92.16
66176;BME280;52977;44.816;20.538;2022-10-14T08:24:13;100014.41;;;15.01;91.81
66176;BME280;52977;44.816;20.538;2022-10-14T08:26:48;100007.06;;;15.05;90.45
66176;BME280;52977;44.816;20.538;2022-10-14T08:29:14;100018.84;;;15.18;88.76
66176;BME280;52977;44.816;20.538;2022-10-14T08:31:39;99979.13;;;15.03;88.28
66176;BME280;52977;44.816;20.538;2022-10-14T08:34:05;100031.78;;;15.30;88.25
66176;BME280;52977;44.816;20.538;2022-10-14T08:36:31;100021.25;;;15.19;89.35
66176;BME280;52977;44.816;20.538;2022-10-14T08:38:57;100020.00;;;15.17;89.21
66176;BME280;52977;44.816;20.538;2022-10-14T08:45:04;100029.38;;;15.28;89.90
66176;BME280;52977;44.816;20.538;2022-10-14T08:47:42;99982.53;;;15.00;90.35
66176;BME280;52977;44.816;20.538;2022-10-14T08:50:16;100037.84;;;15.48;91.17
66176;BME280;52977;44.816;20.538;2022-10-14T08:52:53;100030.50;;;15.52;90.53
66176;BME280;52977;44.816;20.538;2022-10-14T08:55:39;100016.06;;;15.43;90.72
66176;BME280;52977;44.816;20.538;2022-10-14T08:58:20;100028.94;;;15.67;91.74
66176;BME280;52977;44.816;20.538;2022-10-14T09:00:50;99959.47;;;15.29;91.55
66176;BME280;52977;44.816;20.538;2022-10-14T09:03:23;100034.09;;;15.81;89.36
66176;BME280;52977;44.816;20.538;2022-10-14T09:05:56;100032.59;;;15.83;88.32
66176;BME280;52977;44.816;20.538;2022-10-14T09:08:27;100030.31;;;15.85;88.49
66176;BME280;52977;44.816;20.538;2022-10-14T09:10:56;100016.44;;;15.69;88.55
66176;BME280;52977;44.816;20.538;2022-10-14T09:13:31;100032.50;;;15.80;87.58
66176;BME280;52977;44.816;20.538;2022-10-14T09:16:13;100013.69;;;15.69;85.27
66176;BME280;52977;44.816;20.538;2022-10-14T09:18:44;99995.59;;;15.68;84.91
66176;BME280;52977;44.816;20.538;2022-10-14T09:24:10;100036.16;;;16.12;84.53
66176;BME280;52977;44.816;20.538;2022-10-14T09:26:39;100037.41;;;16.15;84.33
66176;BME280;52977;44.816;20.538;2022-10-14T09:31:40;100017.47;;;16.05;83.67
66176;BME280;52977;44.816;20.538;2022-10-14T09:34:09;100035.75;;;16.26;83.24
66176;BME280;52977;44.816;20.538;2022-10-14T09:36:40;100023.72;;;16.18;78.96
66176;BME280;52977;44.816;20.538;2022-10-14T09:39:09;100022.47;;;16.16;79.28
66176;BME280;52977;44.816;20.538;2022-10-14T09:41:37;99989.28;;;15.96;79.29
66176;BME280;52977;44.816;20.538;2022-10-14T09:44:18;100046.59;;;16.35;77.90
66176;BME280;52977;44.816;20.538;2022-10-14T09:46:52;100044.03;;;16.42;76.67
66176;BME280;52977;44.816;20.538;2022-10-14T09:49:34;100031.75;;;16.39;76.09
66176;BME280;52977;44.816;20.538;2022-10-14T09:52:04;99992.88;;;16.13;75.21
66176;BME280;52977;44.816;20.538;2022-10-14T09:54:30;100041.19;;;16.54;74.04
66176;BME280;52977;44.816;20.538;2022-10-14T09:57:05;100033.81;;;16.58;75.15
66176;BME280;52977;44.816;20.538;2022-10-14T09:59:38;99992.47;;;16.27;72.41
66176;BME280;52977;44.816;20.538;2022-10-14T10:02:04;100020.59;;;16.48;73.70
66176;BME280;52977;44.816;20.538;2022-10-14T10:04:43;99992.75;;;16.37;73.17
66176;BME280;52977;44.816;20.538;2022-10-14T10:07:32;99989.19;;;16.21;72.61
66176;BME280;52977;44.816;20.538;2022-10-14T10:10:00;100038.53;;;16.58;72.86
66176;BME280;52977;44.816;20.538;2022-10-14T10:12:32;100031.53;;;16.61;74.31
66176;BME280;52977;44.816;20.538;2022-10-14T10:14:59;100037.94;;;16.65;74.95
66176;BME280;52977;44.816;20.538;2022-10-14T10:17:33;100033.38;;;16.72;74.28
66176;BME280;52977;44.816;20.538;2022-10-14T10:20:29;100034.53;;;16.71;73.76
66176;BME280;52977;44.816;20.538;2022-10-14T10:23:21;100036.25;;;16.76;73.82
66176;BME280;52977;44.816;20.538;2022-10-14T10:25:49;100022.72;;;16.71;71.61
66176;BME280;52977;44.816;20.538;2022-10-14T10:28:26;100033.47;;;16.76;72.17
66176;BME280;52977;44.816;20.538;2022-10-14T10:31:05;100024.31;;;16.72;71.89
66176;BME280;52977;44.816;20.538;2022-10-14T10:33:40;100031.41;;;16.73;72.19
66176;BME280;52977;44.816;20.538;2022-10-14T10:36:22;100008.03;;;16.67;72.96
66176;BME280;52977;44.816;20.538;2022-10-14T10:38:58;100023.41;;;16.84;72.30
66176;BME280;52977;44.816;20.538;2022-10-14T10:47:22;100029.66;;;16.97;70.38
66176;BME280;52977;44.816;20.538;2022-10-14T11:01:33;100000.56;;;16.99;69.45
66176;BME280;52977;44.816;20.538;2022-10-14T11:10:14;99984.00;;;17.15;68.30
66176;BME280;52977;44.816;20.538;2022-10-14T11:13:19;99996.81;;;17.23;68.67
66176;BME280;52977;44.816;20.538;2022-10-14T11:18:47;99963.38;;;17.09;67.85
66176;BME280;52977;44.816;20.538;2022-10-14T11:47:38;99931.84;;;17.46;66.27
66176;BME280;52977;44.816;20.538;2022-10-14T11:50:24;99954.84;;;17.73;65.78
66176;BME280;52977;44.816;20.538;2022-10-14T11:52:55;99954.75;;;17.69;65.83
66176;BME280;52977;44.816;20.538;2022-10-14T11:55:29;99885.38;;;17.28;65.18
66176;BME280;52977;44.816;20.538;2022-10-14T11:58:04;99874.75;;;17.30;65.97
66176;BME280;52977;44.816;20.538;2022-10-14T12:08:55;99930.78;;;17.93;64.00
66176;BME280;52977;44.816;20.538;2022-10-14T12:14:15;99928.88;;;17.97;63.19
66176;BME280;52977;44.816;20.538;2022-10-14T12:16:45;99909.66;;;17.81;61.92
66176;BME280;52977;44.816;20.538;2022-10-14T12:19:14;99923.38;;;17.97;62.24
66176;BME280;52977;44.816;20.538;2022-10-14T12:21:47;99924.19;;;17.98;61.04
66176;BME280;52977;44.816;20.538;2022-10-14T12:24:18;99927.81;;;18.02;60.97
66176;BME280;52977;44.816;20.538;2022-10-14T12:29:21;99917.44;;;18.18;62.33
66176;BME280;52977;44.816;20.538;2022-10-14T12:34:42;99864.44;;;17.89;62.09
66176;BME280;52977;44.816;20.538;2022-10-14T12:39:54;99877.84;;;18.10;61.11
66176;BME280;52977;44.816;20.538;2022-10-14T12:45:19;99911.00;;;18.34;59.92
66176;BME280;52977;44.816;20.538;2022-10-14T12:47:46;99909.13;;;18.41;59.50
66176;BME280;52977;44.816;20.538;2022-10-14T12:50:28;99906.38;;;18.41;57.51
66176;BME280;52977;44.816;20.538;2022-10-14T12:52:59;99863.34;;;18.17;58.42
66176;BME280;52977;44.816;20.538;2022-10-14T12:55:29;99902.28;;;18.58;58.79
66176;BME280;52977;44.816;20.538;2022-10-14T12:57:59;99879.22;;;18.47;58.78
66176;BME280;52977;44.816;20.538;2022-10-14T13:00:28;99906.44;;;18.72;58.06
66176;BME280;52977;44.816;20.538;2022-10-14T13:02:59;99880.41;;;18.46;58.30
66176;BME280;52977;44.816;20.538;2022-10-14T13:21:49;99908.81;;;18.23;58.45
66176;BME280;52977;44.816;20.538;2022-10-14T13:24:24;99907.97;;;18.19;58.20
66176;BME280;52977;44.816;20.538;2022-10-14T13:34:48;99901.66;;;18.19;57.99
66176;BME280;52977;44.816;20.538;2022-10-14T13:37:36;99893.78;;;18.21;58.14
66176;BME280;52977;44.816;20.538;2022-10-14T13:40:34;99895.34;;;18.18;56.05
66176;BME280;52977;44.816;20.538;2022-10-14T13:43:12;99863.34;;;17.94;56.95
66176;BME280;52977;44.816;20.538;2022-10-14T13:45:47;99885.16;;;17.99;57.15
66176;BME280;52977;44.816;20.538;2022-10-14T13:48:16;99890.41;;;18.08;56.11
66176;BME280;52977;44.816;20.538;2022-10-14T13:50:42;99852.78;;;17.76;56.27
66176;BME280;52977;44.816;20.538;2022-10-14T13:53:27;99852.81;;;17.80;56.02
66176;BME280;52977;44.816;20.538;2022-10-14T13:55:53;99894.28;;;18.03;56.43
66176;BME280;52977;44.816;20.538;2022-10-14T13:58:21;99899.38;;;18.01;55.95
66176;BME280;52977;44.816;20.538;2022-10-14T14:03:37;99887.53;;;18.01;55.95
66176;BME280;52977;44.816;20.538;2022-10-14T14:06:10;99882.38;;;17.99;56.42
66176;BME280;52977;44.816;20.538;2022-10-14T14:08:46;99823.25;;;17.57;56.92
66176;BME280;52977;44.816;20.538;2022-10-14T14:11:23;99891.03;;;17.98;56.85
66176;BME280;52977;44.816;20.538;2022-10-14T14:16:35;99885.03;;;17.92;57.63
66176;BME280;52977;44.816;20.538;2022-10-14T14:19:02;99887.31;;;17.90;57.75
66176;BME280;52977;44.816;20.538;2022-10-14T14:21:28;99891.19;;;17.85;57.25
66176;BME280;52977;44.816;20.538;2022-10-14T14:23:56;99849.63;;;17.55;56.68
66176;BME280;52977;44.816;20.538;2022-10-14T14:26:32;99895.44;;;17.79;57.34
66176;BME280;52977;44.816;20.538;2022-10-14T14:28:58;99901.00;;;17.83;58.23
66176;BME280;52977;44.816;20.538;2022-10-14T14:31:27;99886.78;;;17.81;58.09
66176;BME280;52977;44.816;20.538;2022-10-14T14:33:58;99894.31;;;17.84;58.51
66176;BME280;52977;44.816;20.538;2022-10-14T14:36:27;99895.28;;;17.72;58.20
66176;BME280;52977;44.816;20.538;2022-10-14T14:38:57;99856.75;;;17.36;58.38
66176;BME280;52977;44.816;20.538;2022-10-14T14:41:28;99900.38;;;17.70;59.35
66176;BME280;52977;44.816;20.538;2022-10-14T14:43:58;99877.59;;;17.53;58.91
66176;BME280;52977;44.816;20.538;2022-10-14T14:49:00;99861.19;;;17.41;59.50
66176;BME280;52977;44.816;20.538;2022-10-14T14:51:46;99892.09;;;17.70;60.57
66176;BME280;52977;44.816;20.538;2022-10-14T14:54:20;99880.06;;;17.58;59.76
66176;BME280;52977;44.816;20.538;2022-10-14T14:56:55;99888.88;;;17.68;61.25
66176;BME280;52977;44.816;20.538;2022-10-14T14:59:27;99888.63;;;17.53;61.58
66176;BME280;52977;44.816;20.538;2022-10-14T15:01:58;99854.56;;;17.26;61.30
66176;BME280;52977;44.816;20.538;2022-10-14T15:04:26;99898.41;;;17.70;68.14
66176;BME280;52977;44.816;20.538;2022-10-14T15:07:20;99893.88;;;17.82;65.77
66176;BME280;52977;44.816;20.538;2022-10-14T15:10:17;99837.13;;;17.61;71.85
66176;BME280;52977;44.816;20.538;2022-10-14T15:12:59;99878.00;;;17.75;63.04
66176;BME280;52977;44.816;20.538;2022-10-14T15:15:28;99880.09;;;17.62;63.17
66176;BME280;52977;44.816;20.538;2022-10-14T15:18:19;99850.72;;;17.50;66.73
66176;BME280;52977;44.816;20.538;2022-10-14T15:33:47;99870.94;;;17.58;66.41
66176;BME280;52977;44.816;20.538;2022-10-14T15:36:13;99878.44;;;17.57;66.59
66176;BME280;52977;44.816;20.538;2022-10-14T15:38:38;99888.63;;;17.53;66.27
66176;BME280;52977;44.816;20.538;2022-10-14T15:41:04;99897.13;;;17.45;66.56
66176;BME280;52977;44.816;20.538;2022-10-14T15:43:29;99845.00;;;17.00;67.42
66176;BME280;52977;44.816;20.538;2022-10-14T15:45:58;99845.47;;;17.02;67.71
66176;BME280;52977;44.816;20.538;2022-10-14T15:48:48;99876.50;;;17.19;68.00
66176;BME280;52977;44.816;20.538;2022-10-14T15:51:17;99898.28;;;17.24;68.51
66176;BME280;52977;44.816;20.538;2022-10-14T15:53:44;99896.63;;;17.19;68.83
66176;BME280;52977;44.816;20.538;2022-10-14T15:56:10;99877.38;;;17.03;68.90
66176;BME280;52977;44.816;20.538;2022-10-14T15:58:36;99898.06;;;17.13;69.28
66176;BME280;52977;44.816;20.538;2022-10-14T16:01:03;99905.19;;;17.14;69.20
66176;BME280;52977;44.816;20.538;2022-10-14T16:03:31;99867.28;;;16.75;69.15
66176;BME280;52977;44.816;20.538;2022-10-14T16:05:58;99877.94;;;16.77;69.44
66176;BME280;52977;44.816;20.538;2022-10-14T16:08:26;99910.41;;;17.00;69.60
66176;BME280;52977;44.816;20.538;2022-10-14T16:10:53;99906.31;;;16.94;69.80
66176;BME280;52977;44.816;20.538;2022-10-14T16:13:19;99862.97;;;16.58;69.71
66176;BME280;52977;44.816;20.538;2022-10-14T16:15:55;99891.50;;;16.66;69.77
66176;BME280;52977;44.816;20.538;2022-10-14T16:18:22;99855.09;;;16.41;69.70
66176;BME280;52977;44.816;20.538;2022-10-14T16:20:52;99924.81;;;16.77;69.89
66176;BME280;52977;44.816;20.538;2022-10-14T16:23:19;99921.72;;;16.79;69.75
66176;BME280;52977;44.816;20.538;2022-10-14T16:25:47;99916.00;;;16.71;69.95
66176;BME280;52977;44.816;20.538;2022-10-14T16:28:16;99875.59;;;16.44;69.67
66176;BME280;52977;44.816;20.538;2022-10-14T16:30:44;99925.81;;;16.69;70.28
66176;BME280;52977;44.816;20.538;2022-10-14T16:33:17;99922.88;;;16.62;69.84
66176;BME280;52977;44.816;20.538;2022-10-14T16:35:48;99851.66;;;16.12;70.02
66176;BME280;52977;44.816;20.538;2022-10-14T16:38:14;99930.97;;;16.54;69.51
66176;BME280;52977;44.816;20.538;2022-10-14T16:40:39;99920.97;;;16.30;70.40
66176;BME280;52977;44.816;20.538;2022-10-14T16:43:05;99892.50;;;16.10;70.17
66176;BME280;52977;44.816;20.538;2022-10-14T16:45:31;99939.69;;;16.25;71.00
66176;BME280;52977;44.816;20.538;2022-10-14T16:47:57;99938.72;;;16.33;71.05
66176;BME280;52977;44.816;20.538;2022-10-14T16:50:22;99942.38;;;16.37;70.85
66176;BME280;52977;44.816;20.538;2022-10-14T16:52:48;99945.31;;;16.44;70.31
66176;BME280;52977;44.816;20.538;2022-10-14T16:55:32;99908.94;;;16.22;70.21
66176;BME280;52977;44.816;20.538;2022-10-14T16:57:58;99898.25;;;15.89;70.49
66176;BME280;52977;44.816;20.538;2022-10-14T17:00:23;99953.91;;;16.27;70.97
66176;BME280;52977;44.816;20.538;2022-10-14T17:02:49;99960.78;;;16.33;70.90
66176;BME280;52977;44.816;20.538;2022-10-14T17:05:15;99909.28;;;15.89;71.24
66176;BME280;52977;44.816;20.538;2022-10-14T17:07:41;99951.50;;;16.25;70.92
66176;BME280;52977;44.816;20.538;2022-10-14T17:10:08;99923.44;;;16.03;71.15
66176;BME280;52977;44.816;20.538;2022-10-14T17:12:34;99952.19;;;16.06;71.25
66176;BME280;52977;44.816;20.538;2022-10-14T17:15:00;99946.34;;;16.08;71.68
66176;BME280;52977;44.816;20.538;2022-10-14T17:17:26;99956.72;;;15.98;71.58
66176;BME280;52977;44.816;20.538;2022-10-14T17:19:52;99954.94;;;16.06;71.98
66176;BME280;52977;44.816;20.538;2022-10-14T17:22:20;99966.94;;;15.98;71.95
66176;BME280;52977;44.816;20.538;2022-10-14T17:24:46;99964.59;;;15.84;72.24
66176;BME280;52977;44.816;20.538;2022-10-14T17:27:13;99924.22;;;15.47;72.99
66176;BME280;52977;44.816;20.538;2022-10-14T17:29:38;99956.84;;;15.61;73.23
66176;BME280;52977;44.816;20.538;2022-10-14T17:32:04;99971.13;;;15.79;73.58
66176;BME280;52977;44.816;20.538;2022-10-14T17:34:29;99923.59;;;15.38;73.18
66176;BME280;52977;44.816;20.538;2022-10-14T17:37:00;99972.75;;;15.68;73.61
66176;BME280;52977;44.816;20.538;2022-10-14T17:39:26;99974.63;;;15.64;74.02
66176;BME280;52977;44.816;20.538;2022-10-14T17:41:51;99972.81;;;15.55;74.50
66176;BME280;52977;44.816;20.538;2022-10-14T17:44:17;99959.31;;;15.50;74.01
66176;BME280;52977;44.816;20.538;2022-10-14T17:46:43;99973.50;;;15.52;74.85
66176;BME280;52977;44.816;20.538;2022-10-14T17:49:10;99975.44;;;15.64;73.93
66176;BME280;52977;44.816;20.538;2022-10-14T17:51:37;99954.59;;;15.51;74.16
66176;BME280;52977;44.816;20.538;2022-10-14T17:54:05;99949.47;;;15.49;74.59
66176;BME280;52977;44.816;20.538;2022-10-14T17:56:34;99984.69;;;15.72;74.24
66176;BME280;52977;44.816;20.538;2022-10-14T17:59:03;99928.22;;;15.21;74.88